sensor_id;sensor_type;location;lat;lon;timestamp;pressure;altitude;pressure_sealevel;temperature;humidity
18652;BME280;9455;54.302;10.124;2024-03-06T00:02:04;102134.44;;;5.13;100.00
18652;BME280;9455;54.302;10.124;2024-03-06T00:04:33;102128.78;;;5.00;100.00
18652;BME280;9455;54.302;10.124;2024-03-06T00:07:00;102131.09;;;5.08;100.00
18652;BME280;9455;54.302;10.124;2024-03-06T00:09:27;102128.72;;;5.22;100.00
18652;BME280;9455;54.302;10.124;2024-03-06T00:11:53;102131.91;;;5.10;100.00
18652;BME280;9455;54.302;10.124;2024-03-06T00:14:20;102135.53;;;5.27;100.00
18652;BME280;9455;54.302;10.124;2024-03-06T00:16:48;102137.25;;;5.08;100.00
18652;BME280;9455;54.302;10.124;2024-03-06T00:19:15;102142.22;;;5.16;100.00
18652;BME280;9455;54.302;10.124;2024-03-06T00:21:43;102143.34;;;5.10;100.00
18652;BME280;9455;54.302;10.124;2024-03-06T00:24:11;102147.69;;;4.91;100.00
18652;BME280;9455;54.302;10.124;2024-03-06T00:26:39;102139.06;;;4.86;100.00
18652;BME280;9455;54.302;10.124;2024-03-06T00:29:06;102144.34;;;4.86;100.00
18652;BME280;9455;54.302;10.124;2024-03-06T00:31:32;102149.28;;;4.95;100.00
18652;BME280;9455;54.302;10.124;2024-03-06T00:33:59;102145.38;;;5.04;100.00
18652;BME280;9455;54.302;10.124;2024-03-06T00:36:26;102147.50;;;4.96;100.00
18652;BME280;9455;54.302;10.124;2024-03-06T00:38:54;102149.56;;;5.09;100.00
18652;BME280;9455;54.302;10.124;2024-03-06T00:41:20;102143.63;;;5.04;100.00
18652;BME280;9455;54.302;10.124;2024-03-06T00:43:47;102145.19;;;5.08;100.00
18652;BME280;9455;54.302;10.124;2024-03-06T00:46:14;102152.06;;;5.12;100.00
18652;BME280;9455;54.302;10.124;2024-03-06T00:48:40;102145.94;;;4.90;100.00
18652;BME280;9455;54.302;10.124;2024-03-06T00:51:07;102147.63;;;4.93;100.00
18652;BME280;9455;54.302;10.124;2024-03-06T00:53:34;102155.81;;;4.87;100.00
18652;BME280;9455;54.302;10.124;2024-03-06T00:56:03;102156.50;;;4.90;100.00
18652;BME280;9455;54.302;10.124;2024-03-06T00:58:30;102158.53;;;5.05;100.00
18652;BME280;9455;54.302;10.124;2024-03-06T01:00:55;102160.25;;;5.06;100.00
18652;BME280;9455;54.302;10.124;2024-03-06T01:03:23;102166.19;;;4.91;100.00
18652;BME280;9455;54.302;10.124;2024-03-06T01:05:50;102165.78;;;4.80;100.00
18652;BME280;9455;54.302;10.124;2024-03-06T01:08:17;102171.72;;;4.85;100.00
18652;BME280;9455;54.302;10.124;2024-03-06T01:10:44;102173.88;;;4.97;100.00
18652;BME280;9455;54.302;10.124;2024-03-06T01:13:12;102160.78;;;4.94;100.00
18652;BME280;9455;54.302;10.124;2024-03-06T01:15:39;102172.69;;;5.04;100.00
18652;BME280;9455;54.302;10.124;2024-03-06T01:18:05;102164.75;;;5.04;100.00
18652;BME280;9455;54.302;10.124;2024-03-06T01:20:32;102174.94;;;5.13;100.00
18652;BME280;9455;54.302;10.124;2024-03-06T01:22:59;102185.50;;;5.13;100.00
18652;BME280;9455;54.302;10.124;2024-03-06T01:25:25;102176.34;;;4.80;100.00
18652;BME280;9455;54.302;10.124;2024-03-06T01:27:52;102180.47;;;5.07;100.00
18652;BME280;9455;54.302;10.124;2024-03-06T01:30:20;102183.13;;;5.07;100.00
18652;BME280;9455;54.302;10.124;2024-03-06T01:32:47;102184.16;;;5.03;100.00
18652;BME280;9455;54.302;10.124;2024-03-06T01:35:13;102192.50;;;4.94;100.00
18652;BME280;9455;54.302;10.124;2024-03-06T01:37:40;102192.91;;;4.84;100.00
18652;BME280;9455;54.302;10.124;2024-03-06T01:40:08;102193.22;;;4.98;100.00
18652;BME280;9455;54.302;10.124;2024-03-06T01:42:35;102196.66;;;4.78;100.00
18652;BME280;9455;54.302;10.124;2024-03-06T01:45:02;102184.81;;;4.88;100.00
18652;BME280;9455;54.302;10.124;2024-03-06T01:47:30;102195.03;;;4.76;100.00
18652;BME280;9455;54.302;10.124;2024-03-06T01:49:57;102196.13;;;4.70;100.00
18652;BME280;9455;54.302;10.124;2024-03-06T01:52:24;102195.88;;;4.76;100.00
18652;BME280;9455;54.302;10.124;2024-03-06T01:54:51;102192.06;;;4.83;100.00
18652;BME280;9455;54.302;10.124;2024-03-06T01:57:19;102193.03;;;5.02;100.00
18652;BME280;9455;54.302;10.124;2024-03-06T01:59:46;102193.09;;;4.79;100.00
18652;BME280;9455;54.302;10.124;2024-03-06T02:02:13;102192.25;;;4.57;100.00
18652;BME280;9455;54.302;10.124;2024-03-06T02:04:41;102195.88;;;4.76;100.00
18652;BME280;9455;54.302;10.124;2024-03-06T02:07:09;102197.84;;;4.71;100.00
18652;BME280;9455;54.302;10.124;2024-03-06T02:09:36;102194.16;;;4.75;100.00
18652;BME280;9455;54.302;10.124;2024-03-06T02:12:04;102189.56;;;4.80;100.00
18652;BME280;9455;54.302;10.124;2024-03-06T02:14:30;102191.50;;;4.75;100.00
18652;BME280;9455;54.302;10.124;2024-03-06T02:16:57;102199.31;;;4.78;100.00
18652;BME280;9455;54.302;10.124;2024-03-06T02:19:24;102204.31;;;4.86;100.00
18652;BME280;9455;54.302;10.124;2024-03-06T02:21:53;102204.72;;;4.75;100.00
18652;BME280;9455;54.302;10.124;2024-03-06T02:24:20;102196.25;;;4.89;100.00
18652;BME280;9455;54.302;10.124;2024-03-06T02:26:46;102203.25;;;4.90;100.00
18652;BME280;9455;54.302;10.124;2024-03-06T02:29:13;102201.31;;;4.93;100.00
18652;BME280;9455;54.302;10.124;2024-03-06T02:31:40;102201.28;;;4.73;100.00
18652;BME280;9455;54.302;10.124;2024-03-06T02:34:07;102200.53;;;4.91;100.00
18652;BME280;9455;54.302;10.124;2024-03-06T02:36:34;102199.31;;;4.78;100.00
18652;BME280;9455;54.302;10.124;2024-03-06T02:39:02;102199.19;;;5.03;100.00
18652;BME280;9455;54.302;10.124;2024-03-06T02:41:34;102209.13;;;4.96;100.00
18652;BME280;9455;54.302;10.124;2024-03-06T02:44:01;102207.31;;;4.98;100.00
18652;BME280;9455;54.302;10.124;2024-03-06T02:46:27;102213.66;;;4.94;100.00
18652;BME280;9455;54.302;10.124;2024-03-06T02:48:54;102205.34;;;4.60;100.00
18652;BME280;9455;54.302;10.124;2024-03-06T02:51:21;102203.25;;;4.68;100.00
18652;BME280;9455;54.302;10.124;2024-03-06T02:53:48;102202.56;;;4.85;100.00
18652;BME280;9455;54.302;10.124;2024-03-06T02:56:19;102203.47;;;4.62;100.00
18652;BME280;9455;54.302;10.124;2024-03-06T02:58:46;102195.44;;;4.65;100.00
18652;BME280;9455;54.302;10.124;2024-03-06T03:01:13;102203.25;;;4.68;100.00
18652;BME280;9455;54.302;10.124;2024-03-06T03:03:40;102204.47;;;4.60;100.00
18652;BME280;9455;54.302;10.124;2024-03-06T03:06:07;102206.44;;;4.76;100.00
18652;BME280;9455;54.302;10.124;2024-03-06T03:08:34;102205.81;;;4.70;100.00
18652;BME280;9455;54.302;10.124;2024-03-06T03:11:01;102209.53;;;4.87;100.00
18652;BME280;9455;54.302;10.124;2024-03-06T03:13:29;102203.63;;;4.81;100.00
18652;BME280;9455;54.302;10.124;2024-03-06T03:15:57;102203.13;;;4.71;100.00
18652;BME280;9455;54.302;10.124;2024-03-06T03:18:23;102202.72;;;4.82;100.00
18652;BME280;9455;54.302;10.124;2024-03-06T03:20:50;102204.84;;;4.51;100.00
18652;BME280;9455;54.302;10.124;2024-03-06T03:23:17;102196.47;;;4.61;100.00
18652;BME280;9455;54.302;10.124;2024-03-06T03:25:47;102201.78;;;4.61;100.00
18652;BME280;9455;54.302;10.124;2024-03-06T03:28:14;102205.47;;;4.57;100.00
18652;BME280;9455;54.302;10.124;2024-03-06T03:30:42;102208.41;;;4.71;100.00
18652;BME280;9455;54.302;10.124;2024-03-06T03:33:10;102216.72;;;4.84;100.00
18652;BME280;9455;54.302;10.124;2024-03-06T03:35:37;102221.28;;;4.80;100.00
18652;BME280;9455;54.302;10.124;2024-03-06T03:38:03;102222.09;;;4.81;100.00
18652;BME280;9455;54.302;10.124;2024-03-06T03:40:30;102218.63;;;4.80;100.00
18652;BME280;9455;54.302;10.124;2024-03-06T03:42:58;102223.09;;;4.78;100.00
18652;BME280;9455;54.302;10.124;2024-03-06T03:45:31;102232.97;;;4.95;100.00
18652;BME280;9455;54.302;10.124;2024-03-06T03:47:59;102225.75;;;4.78;100.00
18652;BME280;9455;54.302;10.124;2024-03-06T03:50:27;102225.44;;;4.86;100.00
18652;BME280;9455;54.302;10.124;2024-03-06T03:52:54;102227.50;;;4.78;100.00
18652;BME280;9455;54.302;10.124;2024-03-06T03:55:23;102227.28;;;4.84;100.00
18652;BME280;9455;54.302;10.124;2024-03-06T03:57:50;102216.41;;;4.91;100.00
18652;BME280;9455;54.302;10.124;2024-03-06T04:00:17;102218.34;;;4.86;100.00
18652;BME280;9455;54.302;10.124;2024-03-06T04:02:44;102218.56;;;4.82;100.00
18652;BME280;9455;54.302;10.124;2024-03-06T04:05:12;102217.63;;;4.83;100.00
18652;BME280;9455;54.302;10.124;2024-03-06T04:07:40;102221.38;;;4.77;100.00
18652;BME280;9455;54.302;10.124;2024-03-06T04:10:07;102223.41;;;4.92;100.00
18652;BME280;9455;54.302;10.124;2024-03-06T04:12:36;102225.25;;;4.69;100.00
18652;BME280;9455;54.302;10.124;2024-03-06T04:15:04;102226.34;;;4.85;100.00
18652;BME280;9455;54.302;10.124;2024-03-06T04:17:31;102228.06;;;4.64;100.00
18652;BME280;9455;54.302;10.124;2024-03-06T04:19:58;102225.75;;;4.78;100.00
18652;BME280;9455;54.302;10.124;2024-03-06T04:22:26;102228.06;;;4.64;100.00
18652;BME280;9455;54.302;10.124;2024-03-06T04:24:54;102236.97;;;4.83;100.00
18652;BME280;9455;54.302;10.124;2024-03-06T04:27:23;102239.78;;;4.80;100.00
18652;BME280;9455;54.302;10.124;2024-03-06T04:29:50;102242.47;;;4.79;100.00
18652;BME280;9455;54.302;10.124;2024-03-06T04:32:17;102243.19;;;4.82;100.00
18652;BME280;9455;54.302;10.124;2024-03-06T04:34:44;102238.28;;;4.73;100.00
18652;BME280;9455;54.302;10.124;2024-03-06T04:37:11;102243.00;;;4.65;100.00
18652;BME280;9455;54.302;10.124;2024-03-06T04:39:39;102237.59;;;4.68;100.00
18652;BME280;9455;54.302;10.124;2024-03-06T04:42:06;102239.25;;;4.71;100.00
18652;BME280;9455;54.302;10.124;2024-03-06T04:44:33;102246.66;;;4.84;100.00
18652;BME280;9455;54.302;10.124;2024-03-06T04:47:00;102248.97;;;4.70;100.00
18652;BME280;9455;54.302;10.124;2024-03-06T04:49:27;102256.56;;;4.78;100.00
18652;BME280;9455;54.302;10.124;2024-03-06T04:51:53;102258.94;;;4.85;100.00
18652;BME280;9455;54.302;10.124;2024-03-06T04:54:20;102257.75;;;4.71;100.00
18652;BME280;9455;54.302;10.124;2024-03-06T04:56:48;102260.91;;;4.80;100.00
18652;BME280;9455;54.302;10.124;2024-03-06T04:59:15;102265.56;;;4.74;100.00
18652;BME280;9455;54.302;10.124;2024-03-06T05:01:41;102266.88;;;4.62;100.00
18652;BME280;9455;54.302;10.124;2024-03-06T05:04:09;102263.16;;;4.68;100.00
18652;BME280;9455;54.302;10.124;2024-03-06T05:06:37;102266.44;;;4.74;100.00
18652;BME280;9455;54.302;10.124;2024-03-06T05:09:03;102271.22;;;4.65;100.00
18652;BME280;9455;54.302;10.124;2024-03-06T05:11:31;102265.81;;;4.89;100.00
18652;BME280;9455;54.302;10.124;2024-03-06T05:13:59;102278.97;;;4.91;100.00
18652;BME280;9455;54.302;10.124;2024-03-06T05:16:26;102274.56;;;4.91;100.00
18652;BME280;9455;54.302;10.124;2024-03-06T05:18:53;102273.19;;;4.81;100.00
18652;BME280;9455;54.302;10.124;2024-03-06T05:21:22;102276.94;;;4.76;100.00
18652;BME280;9455;54.302;10.124;2024-03-06T05:23:48;102281.22;;;4.78;100.00
18652;BME280;9455;54.302;10.124;2024-03-06T05:26:15;102285.66;;;4.78;100.00
18652;BME280;9455;54.302;10.124;2024-03-06T05:28:42;102288.78;;;4.66;100.00
18652;BME280;9455;54.302;10.124;2024-03-06T05:31:17;102286.28;;;4.84;100.00
18652;BME280;9455;54.302;10.124;2024-03-06T05:33:46;102294.78;;;4.69;100.00
18652;BME280;9455;54.302;10.124;2024-03-06T05:36:13;102303.03;;;4.83;100.00
18652;BME280;9455;54.302;10.124;2024-03-06T05:38:40;102301.00;;;4.91;100.00
18652;BME280;9455;54.302;10.124;2024-03-06T05:41:08;102308.34;;;4.83;100.00
18652;BME280;9455;54.302;10.124;2024-03-06T05:43:35;102309.16;;;4.85;100.00
18652;BME280;9455;54.302;10.124;2024-03-06T05:46:01;102308.59;;;4.77;100.00
18652;BME280;9455;54.302;10.124;2024-03-06T05:48:29;102315.59;;;4.78;100.00
18652;BME280;9455;54.302;10.124;2024-03-06T05:50:56;102316.63;;;4.97;100.00
18652;BME280;9455;54.302;10.124;2024-03-06T05:53:23;102319.00;;;4.82;100.00
18652;BME280;9455;54.302;10.124;2024-03-06T05:55:49;102321.50;;;4.85;100.00
18652;BME280;9455;54.302;10.124;2024-03-06T05:58:16;102323.84;;;4.92;100.00
18652;BME280;9455;54.302;10.124;2024-03-06T06:00:43;102329.25;;;4.89;100.00
18652;BME280;9455;54.302;10.124;2024-03-06T06:03:10;102328.13;;;4.73;100.00
18652;BME280;9455;54.302;10.124;2024-03-06T06:05:38;102333.16;;;4.79;100.00
18652;BME280;9455;54.302;10.124;2024-03-06T06:08:06;102340.59;;;4.93;100.00
18652;BME280;9455;54.302;10.124;2024-03-06T06:10:32;102338.28;;;4.61;100.00
18652;BME280;9455;54.302;10.124;2024-03-06T06:13:00;102337.25;;;4.65;100.00
18652;BME280;9455;54.302;10.124;2024-03-06T06:15:28;102338.22;;;4.39;100.00
18652;BME280;9455;54.302;10.124;2024-03-06T06:17:55;102339.38;;;4.55;100.00
18652;BME280;9455;54.302;10.124;2024-03-06T06:20:22;102347.34;;;4.54;100.00
18652;BME280;9455;54.302;10.124;2024-03-06T06:22:51;102347.06;;;4.61;100.00
18652;BME280;9455;54.302;10.124;2024-03-06T06:25:17;102356.13;;;4.54;100.00
18652;BME280;9455;54.302;10.124;2024-03-06T06:27:44;102359.00;;;4.48;100.00
18652;BME280;9455;54.302;10.124;2024-03-06T06:30:12;102349.50;;;4.67;100.00
18652;BME280;9455;54.302;10.124;2024-03-06T06:32:38;102354.25;;;4.58;100.00
18652;BME280;9455;54.302;10.124;2024-03-06T06:35:06;102354.38;;;4.55;100.00
18652;BME280;9455;54.302;10.124;2024-03-06T06:37:33;102362.97;;;4.60;100.00
18652;BME280;9455;54.302;10.124;2024-03-06T06:40:01;102356.59;;;4.65;100.00
18652;BME280;9455;54.302;10.124;2024-03-06T06:42:31;102366.94;;;4.71;100.00
18652;BME280;9455;54.302;10.124;2024-03-06T06:44:58;102371.09;;;4.78;100.00
18652;BME280;9455;54.302;10.124;2024-03-06T06:47:26;102362.88;;;4.86;100.00
18652;BME280;9455;54.302;10.124;2024-03-06T06:49:52;102372.22;;;4.71;100.00
18652;BME280;9455;54.302;10.124;2024-03-06T06:52:19;102384.53;;;4.72;100.00
18652;BME280;9455;54.302;10.124;2024-03-06T06:54:46;102379.91;;;4.54;100.00
18652;BME280;9455;54.302;10.124;2024-03-06T06:57:15;102389.13;;;4.67;100.00
18652;BME280;9455;54.302;10.124;2024-03-06T06:59:42;102389.59;;;4.78;100.00
18652;BME280;9455;54.302;10.124;2024-03-06T07:02:08;102395.38;;;4.88;100.00
18652;BME280;9455;54.302;10.124;2024-03-06T07:04:35;102396.03;;;4.94;100.00
18652;BME280;9455;54.302;10.124;2024-03-06T07:07:02;102393.44;;;4.93;100.00
18652;BME280;9455;54.302;10.124;2024-03-06T07:09:29;102409.75;;;4.81;100.00
18652;BME280;9455;54.302;10.124;2024-03-06T07:11:56;102404.75;;;4.96;100.00
18652;BME280;9455;54.302;10.124;2024-03-06T07:14:23;102407.84;;;5.07;100.00
18652;BME280;9455;54.302;10.124;2024-03-06T07:16:50;102407.06;;;5.05;100.00
18652;BME280;9455;54.302;10.124;2024-03-06T07:19:17;102427.38;;;5.03;100.00
18652;BME280;9455;54.302;10.124;2024-03-06T07:21:44;102419.88;;;4.93;100.00
18652;BME280;9455;54.302;10.124;2024-03-06T07:24:11;102421.88;;;5.09;100.00
18652;BME280;9455;54.302;10.124;2024-03-06T07:26:37;102421.13;;;5.06;100.00
18652;BME280;9455;54.302;10.124;2024-03-06T07:29:04;102426.13;;;4.90;100.00
18652;BME280;9455;54.302;10.124;2024-03-06T07:31:39;102422.75;;;5.10;100.00
18652;BME280;9455;54.302;10.124;2024-03-06T07:34:06;102427.16;;;5.09;100.00
18652;BME280;9455;54.302;10.124;2024-03-06T07:36:33;102437.25;;;5.21;100.00
18652;BME280;9455;54.302;10.124;2024-03-06T07:39:00;102440.22;;;5.14;100.00
18652;BME280;9455;54.302;10.124;2024-03-06T07:41:26;102440.09;;;5.17;100.00
18652;BME280;9455;54.302;10.124;2024-03-06T07:43:53;102442.56;;;5.21;100.00
18652;BME280;9455;54.302;10.124;2024-03-06T07:46:20;102444.03;;;5.28;100.00
18652;BME280;9455;54.302;10.124;2024-03-06T07:48:48;102442.22;;;5.30;100.00
18652;BME280;9455;54.302;10.124;2024-03-06T07:51:16;102448.81;;;5.19;100.00
18652;BME280;9455;54.302;10.124;2024-03-06T07:53:43;102446.13;;;5.20;100.00
18652;BME280;9455;54.302;10.124;2024-03-06T07:56:10;102451.31;;;5.23;100.00
18652;BME280;9455;54.302;10.124;2024-03-06T07:58:37;102453.13;;;5.21;100.00
18652;BME280;9455;54.302;10.124;2024-03-06T08:01:04;102452.50;;;5.15;100.00
18652;BME280;9455;54.302;10.124;2024-03-06T08:03:31;102457.06;;;5.11;100.00
18652;BME280;9455;54.302;10.124;2024-03-06T08:06:00;102463.13;;;4.90;100.00
18652;BME280;9455;54.302;10.124;2024-03-06T08:08:27;102465.75;;;4.90;100.00
18652;BME280;9455;54.302;10.124;2024-03-06T08:10:54;102463.38;;;5.07;100.00
18652;BME280;9455;54.302;10.124;2024-03-06T08:13:20;102460.91;;;5.26;100.00
18652;BME280;9455;54.302;10.124;2024-03-06T08:15:47;102471.72;;;5.20;100.00
18652;BME280;9455;54.302;10.124;2024-03-06T08:18:13;102470.47;;;5.07;100.00
18652;BME280;9455;54.302;10.124;2024-03-06T08:20:40;102487.72;;;5.17;100.00
18652;BME280;9455;54.302;10.124;2024-03-06T08:23:09;102485.78;;;5.20;100.00
18652;BME280;9455;54.302;10.124;2024-03-06T08:25:36;102488.16;;;5.05;100.00
18652;BME280;9455;54.302;10.124;2024-03-06T08:28:03;102490.34;;;5.17;100.00
18652;BME280;9455;54.302;10.124;2024-03-06T08:30:30;102486.50;;;5.25;100.00
18652;BME280;9455;54.302;10.124;2024-03-06T08:32:57;102491.31;;;5.37;100.00
18652;BME280;9455;54.302;10.124;2024-03-06T08:35:24;102488.91;;;5.08;100.00
18652;BME280;9455;54.302;10.124;2024-03-06T08:37:51;102496.59;;;5.14;100.00
18652;BME280;9455;54.302;10.124;2024-03-06T08:40:19;102498.56;;;5.32;100.00
18652;BME280;9455;54.302;10.124;2024-03-06T08:42:46;102500.34;;;5.32;100.00
18652;BME280;9455;54.302;10.124;2024-03-06T08:45:14;102505.34;;;5.39;100.00
18652;BME280;9455;54.302;10.124;2024-03-06T08:47:41;102513.75;;;5.50;100.00
18652;BME280;9455;54.302;10.124;2024-03-06T08:50:07;102513.75;;;5.50;100.00
18652;BME280;9455;54.302;10.124;2024-03-06T08:52:34;102517.50;;;5.45;100.00
18652;BME280;9455;54.302;10.124;2024-03-06T08:55:02;102512.69;;;5.31;100.00
18652;BME280;9455;54.302;10.124;2024-03-06T08:57:30;102522.28;;;5.35;100.00
18652;BME280;9455;54.302;10.124;2024-03-06T08:59:57;102514.94;;;5.65;100.00
18652;BME280;9455;54.302;10.124;2024-03-06T09:02:24;102522.47;;;5.52;100.00
18652;BME280;9455;54.302;10.124;2024-03-06T09:04:51;102516.91;;;5.37;100.00
18652;BME280;9455;54.302;10.124;2024-03-06T09:07:18;102520.28;;;5.17;100.00
18652;BME280;9455;54.302;10.124;2024-03-06T09:09:49;102522.28;;;5.35;100.00
18652;BME280;9455;54.302;10.124;2024-03-06T09:12:16;102525.41;;;5.22;100.00
18652;BME280;9455;54.302;10.124;2024-03-06T09:14:44;102523.63;;;5.22;100.00
18652;BME280;9455;54.302;10.124;2024-03-06T09:17:11;102530.56;;;5.49;100.00
18652;BME280;9455;54.302;10.124;2024-03-06T09:19:38;102529.94;;;5.41;100.00
18652;BME280;9455;54.302;10.124;2024-03-06T09:22:05;102534.69;;;5.33;100.00
18652;BME280;9455;54.302;10.124;2024-03-06T09:24:31;102539.97;;;5.33;100.00
18652;BME280;9455;54.302;10.124;2024-03-06T09:26:58;102533.19;;;5.49;100.00
18652;BME280;9455;54.302;10.124;2024-03-06T09:29:26;102533.75;;;5.34;100.00
18652;BME280;9455;54.302;10.124;2024-03-06T09:31:54;102542.28;;;5.42;100.00
18652;BME280;9455;54.302;10.124;2024-03-06T09:34:20;102545.16;;;5.36;100.00
18652;BME280;9455;54.302;10.124;2024-03-06T09:36:49;102552.22;;;5.36;100.00
18652;BME280;9455;54.302;10.124;2024-03-06T09:39:17;102551.28;;;5.14;100.00
18652;BME280;9455;54.302;10.124;2024-03-06T09:41:45;102552.00;;;5.42;100.00
18652;BME280;9455;54.302;10.124;2024-03-06T09:44:13;102554.53;;;5.45;100.00
18652;BME280;9455;54.302;10.124;2024-03-06T09:46:42;102555.09;;;5.53;100.00
18652;BME280;9455;54.302;10.124;2024-03-06T09:49:11;102557.00;;;5.49;100.00
18652;BME280;9455;54.302;10.124;2024-03-06T09:51:40;102567.16;;;5.60;100.00
18652;BME280;9455;54.302;10.124;2024-03-06T09:54:11;102568.16;;;5.57;100.00
18652;BME280;9455;54.302;10.124;2024-03-06T09:56:41;102567.09;;;5.38;100.00
18652;BME280;9455;54.302;10.124;2024-03-06T09:59:07;102565.50;;;5.34;100.00
18652;BME280;9455;54.302;10.124;2024-03-06T10:01:34;102567.94;;;5.63;100.00
18652;BME280;9455;54.302;10.124;2024-03-06T10:04:18;102579.88;;;5.73;100.00
18652;BME280;9455;54.302;10.124;2024-03-06T10:06:46;102574.56;;;5.73;100.00
18652;BME280;9455;54.302;10.124;2024-03-06T10:09:16;102576.38;;;5.50;100.00
18652;BME280;9455;54.302;10.124;2024-03-06T10:11:43;102587.72;;;5.53;100.00
18652;BME280;9455;54.302;10.124;2024-03-06T10:14:09;102580.34;;;5.61;100.00
18652;BME280;9455;54.302;10.124;2024-03-06T10:16:37;102586.56;;;5.60;100.00
18652;BME280;9455;54.302;10.124;2024-03-06T10:19:18;102591.22;;;5.54;100.00
18652;BME280;9455;54.302;10.124;2024-03-06T10:21:47;102587.47;;;5.59;100.00
18652;BME280;9455;54.302;10.124;2024-03-06T10:24:18;102594.84;;;5.51;100.00
18652;BME280;9455;54.302;10.124;2024-03-06T10:26:45;102597.38;;;5.54;100.00
18652;BME280;9455;54.302;10.124;2024-03-06T10:29:15;102597.22;;;5.59;100.00
18652;BME280;9455;54.302;10.124;2024-03-06T10:31:47;102601.53;;;5.61;100.00
18652;BME280;9455;54.302;10.124;2024-03-06T10:34:14;102599.91;;;5.57;100.00
18652;BME280;9455;54.302;10.124;2024-03-06T10:36:42;102607.75;;;5.84;100.00
18652;BME280;9455;54.302;10.124;2024-03-06T10:39:11;102604.41;;;5.78;100.00
18652;BME280;9455;54.302;10.124;2024-03-06T10:41:40;102606.22;;;5.76;100.00
18652;BME280;9455;54.302;10.124;2024-03-06T10:44:12;102601.34;;;5.89;100.00
18652;BME280;9455;54.302;10.124;2024-03-06T10:46:44;102608.34;;;5.92;100.00
18652;BME280;9455;54.302;10.124;2024-03-06T10:49:12;102605.94;;;5.86;100.00
18652;BME280;9455;54.302;10.124;2024-03-06T10:51:41;102607.34;;;5.94;100.00
18652;BME280;9455;54.302;10.124;2024-03-06T10:54:10;102598.81;;;5.88;100.00
18652;BME280;9455;54.302;10.124;2024-03-06T10:56:39;102608.28;;;5.93;100.00
18652;BME280;9455;54.302;10.124;2024-03-06T10:59:10;102613.28;;;6.01;100.00
18652;BME280;9455;54.302;10.124;2024-03-06T11:01:39;102609.06;;;5.95;100.00
18652;BME280;9455;54.302;10.124;2024-03-06T11:04:06;102611.22;;;5.86;100.00
18652;BME280;9455;54.302;10.124;2024-03-06T11:06:33;102612.34;;;5.78;100.00
18652;BME280;9455;54.302;10.124;2024-03-06T11:09:01;102612.53;;;5.97;100.00
18652;BME280;9455;54.302;10.124;2024-03-06T11:11:29;102617.91;;;5.96;100.00
18652;BME280;9455;54.302;10.124;2024-03-06T11:14:00;102620.28;;;5.78;100.00
18652;BME280;9455;54.302;10.124;2024-03-06T11:16:28;102621.81;;;5.86;100.00
18652;BME280;9455;54.302;10.124;2024-03-06T11:19:05;102620.56;;;5.71;100.00
18652;BME280;9455;54.302;10.124;2024-03-06T11:21:32;102616.66;;;5.58;100.00
18652;BME280;9455;54.302;10.124;2024-03-06T11:24:35;102632.28;;;5.41;100.00
18652;BME280;9455;54.302;10.124;2024-03-06T11:27:02;102620.25;;;5.55;100.00
18652;BME280;9455;54.302;10.124;2024-03-06T11:30:04;102635.47;;;5.50;100.00
18652;BME280;9455;54.302;10.124;2024-03-06T11:32:36;102631.81;;;5.78;100.00
18652;BME280;9455;54.302;10.124;2024-03-06T11:35:03;102637.38;;;5.70;100.00
18652;BME280;9455;54.302;10.124;2024-03-06T11:37:33;102642.41;;;5.78;100.00
18652;BME280;9455;54.302;10.124;2024-03-06T11:40:03;102642.78;;;5.67;100.00
18652;BME280;9455;54.302;10.124;2024-03-06T11:42:33;102642.34;;;5.54;100.00
18652;BME280;9455;54.302;10.124;2024-03-06T11:45:12;102641.28;;;5.85;100.00
18652;BME280;9455;54.302;10.124;2024-03-06T11:47:58;102637.88;;;5.81;100.00
18652;BME280;9455;54.302;10.124;2024-03-06T11:50:25;102640.75;;;5.73;100.00
18652;BME280;9455;54.302;10.124;2024-03-06T11:52:53;102640.19;;;5.65;100.00
18652;BME280;9455;54.302;10.124;2024-03-06T11:55:22;102648.50;;;6.03;100.00
18652;BME280;9455;54.302;10.124;2024-03-06T11:57:50;102642.44;;;5.99;100.00
18652;BME280;9455;54.302;10.124;2024-03-06T12:00:21;102642.84;;;6.12;100.00
18652;BME280;9455;54.302;10.124;2024-03-06T12:02:48;102641.66;;;5.97;100.00
18652;BME280;9455;54.302;10.124;2024-03-06T12:05:15;102651.03;;;5.83;100.00
18652;BME280;9455;54.302;10.124;2024-03-06T12:07:46;102641.78;;;5.69;100.00
18652;BME280;9455;54.302;10.124;2024-03-06T12:10:12;102649.88;;;5.90;100.00
18652;BME280;9455;54.302;10.124;2024-03-06T12:12:42;102649.78;;;5.93;100.00
18652;BME280;9455;54.302;10.124;2024-03-06T12:15:10;102656.75;;;5.95;100.00
18652;BME280;9455;54.302;10.124;2024-03-06T12:17:42;102649.78;;;5.93;100.00
18652;BME280;9455;54.302;10.124;2024-03-06T12:20:11;102647.97;;;5.70;100.00
18652;BME280;9455;54.302;10.124;2024-03-06T12:22:43;102643.09;;;5.83;100.00
18652;BME280;9455;54.302;10.124;2024-03-06T12:25:10;102654.16;;;5.94;100.00
18652;BME280;9455;54.302;10.124;2024-03-06T12:27:37;102648.69;;;5.98;100.00
18652;BME280;9455;54.302;10.124;2024-03-06T12:30:10;102656.47;;;6.03;100.00
18652;BME280;9455;54.302;10.124;2024-03-06T12:32:38;102647.25;;;6.13;100.00
18652;BME280;9455;54.302;10.124;2024-03-06T12:35:06;102643.34;;;6.00;100.00
18652;BME280;9455;54.302;10.124;2024-03-06T12:37:32;102648.84;;;6.17;100.00
18652;BME280;9455;54.302;10.124;2024-03-06T12:39:59;102646.25;;;6.15;100.00
18652;BME280;9455;54.302;10.124;2024-03-06T12:42:26;102643.53;;;6.17;100.00
18652;BME280;9455;54.302;10.124;2024-03-06T12:44:54;102648.72;;;6.20;100.00
18652;BME280;9455;54.302;10.124;2024-03-06T12:47:22;102649.41;;;6.25;100.00
18652;BME280;9455;54.302;10.124;2024-03-06T12:49:49;102648.63;;;6.23;100.00
18652;BME280;9455;54.302;10.124;2024-03-06T12:52:16;102656.09;;;6.12;100.00
18652;BME280;9455;54.302;10.124;2024-03-06T12:54:42;102641.44;;;6.03;100.00